Pryor, MT (59066)

11:48 PM MST on November 25, 2014 (GMT -0700)
Hillcrest and southridge | Change Station
CLOSE
Current Station
Personal Weather Station
Location: Billings, MT
Elevation: 3681 ft
Nearby Weather Stations
Active Advisory: Winter Weather Advisory Active Notice: Public Information Statement

Elev 3681 ft 45.69 °N, 108.56 °W | Updated 8 minutes ago

Snow
Snow
28.8 °F
Feels Like 22 °F
N
6.3
Wind Variable Wind from SW

Today
High -- | Low -- °F
--% Chance of Precip.
Yesterday
High -- | Low -- °F
Precip. -- in
7:26 AM 4:35 PM
Waxing Crescent, 17% visible
Pressure 30.24 in
Visibility 10.0 miles
Clouds Overcast 4600 ft
Windchill 22 °F
Dew Point 23 °F
Humidity 80%
Rainfall 0.00 in
Snow Depth Not available.
UV 0 out of 12
Pollen .10 out of 12
Air Quality Not available.
Flu Activity Not available.
METAR KBIL 260553Z 32006KT 10SM OVC046 01/M08 A3016 RMK AO2 SLP238 T00111083 10017 20006 51013 $

More Conditions Fewer Conditions

Pressure 30.24 in
Visibility 10.0 miles
Clouds Overcast 4600 ft
Windchill 22 °F
Dew Point 23 °F
Humidity 80%
Rainfall 0.00 in
Snow Depth Not available.
UV 0 out of 12
Pollen .10 out of 12
Air Quality Not available.
Flu Activity Not available.
METAR KBIL 260553Z 32006KT 10SM OVC046 01/M08 A3016 RMK AO2 SLP238 T00111083 10017 20006 51013 $

More Conditions Fewer Conditions

10-Day Weather Forecast

Almanac

Astronomy

Nov. 25, 2014 Rise Set
Actual Time
Civil Twilight
Nautical Twilight
Astronomical Twilight
Moon
Length of Visible Light
Length of Day
Tomorrow will be .
, % of the Moon is Illuminated

Today's Extremes

State Highs State Lows

Community

WunderPhotos

Upload Photos

1,773,691 photos uploaded!

WunderBlogs® & News

Nearby

Air Quality

  Air Quality AQ Index Pollutant
Not available.

Snow Depth

Station Depth Elevation

Earthquake Activity

City Distance Mag. Time & Date
Minimum magnitude displayed is 2.5.

Coastal Water Temperatures

Place Temperature

Nearby Weather Stations